createdAt,value
2018-05-17T00:01:35.275Z,4.37
2018-05-17T00:04:02.849Z,6.73
2018-05-17T00:06:30.483Z,5.93
2018-05-17T00:08:57.960Z,5.43
2018-05-17T00:11:25.523Z,4.93
2018-05-17T00:13:53.175Z,4.73
2018-05-17T00:16:20.653Z,9.00
2018-05-17T00:18:48.125Z,7.23
2018-05-17T00:21:15.576Z,6.57
2018-05-17T00:23:43.032Z,5.60
2018-05-17T00:26:10.486Z,7.30
2018-05-17T00:28:38.044Z,6.47
2018-05-17T00:31:05.499Z,4.50
2018-05-17T00:33:33.131Z,8.23
2018-05-17T00:36:00.588Z,7.73
2018-05-17T00:38:28.044Z,6.53
2018-05-17T00:40:55.811Z,6.10
2018-05-17T00:43:23.409Z,4.40
2018-05-17T00:45:51.037Z,6.87
2018-05-17T00:48:18.508Z,7.67
2018-05-17T00:50:45.988Z,6.70
2018-05-17T00:53:37.058Z,5.53
2018-05-17T00:56:04.560Z,8.93
2018-05-17T00:58:32.015Z,5.37
2018-05-17T01:00:59.471Z,6.77
2018-05-17T01:03:26.932Z,5.27
2018-05-17T01:05:54.508Z,7.47
2018-05-17T01:08:22.136Z,7.20
2018-05-17T01:10:49.879Z,6.47
2018-05-17T01:13:17.524Z,5.20
2018-05-17T01:15:45.239Z,9.07
2018-05-17T01:18:13.008Z,10.13
2018-05-17T01:20:40.666Z,5.83
2018-05-17T01:23:08.111Z,6.87
2018-05-17T01:25:35.693Z,6.80
2018-05-17T01:28:03.315Z,6.20
2018-05-17T01:30:30.877Z,5.23
2018-05-17T01:32:58.401Z,7.97
2018-05-17T01:35:25.839Z,5.30
2018-05-17T01:38:04.900Z,5.73
2018-05-17T01:40:32.588Z,6.13
2018-05-17T01:43:00.088Z,6.57
2018-05-17T01:45:27.636Z,6.10
2018-05-17T01:47:55.271Z,5.17
2018-05-17T01:50:22.868Z,6.40
2018-05-17T01:52:50.324Z,5.60
2018-05-17T01:55:17.967Z,5.93
2018-05-17T01:57:45.433Z,8.80
2018-05-17T02:00:13.068Z,6.63
2018-05-17T02:02:40.764Z,7.30
2018-05-17T02:05:08.236Z,6.03
2018-05-17T02:07:35.859Z,4.77
2018-05-17T02:10:03.328Z,7.20
2018-05-17T02:12:30.771Z,6.77
2018-05-17T02:14:58.302Z,6.53
2018-05-17T02:17:25.752Z,5.97
2018-05-17T02:19:53.284Z,5.77
2018-05-17T02:22:20.920Z,5.23
2018-05-17T02:24:48.375Z,9.23
2018-05-17T02:27:15.867Z,5.93
2018-05-17T02:29:43.338Z,6.07
2018-05-17T02:32:10.813Z,7.77
2018-05-17T02:34:38.259Z,6.17
2018-05-17T02:37:05.711Z,5.53
2018-05-17T02:39:33.163Z,7.43
2018-05-17T02:42:00.985Z,7.87
2018-05-17T02:44:28.439Z,6.60
2018-05-17T02:46:55.999Z,6.53
2018-05-17T02:49:23.451Z,5.93
2018-05-17T02:51:50.899Z,6.80
2018-05-17T02:54:18.451Z,6.90
2018-05-17T02:56:46.016Z,9.17
2018-05-17T02:59:13.558Z,7.50
2018-05-17T03:01:41.003Z,8.33
2018-05-17T03:04:08.455Z,8.17
2018-05-17T03:06:36.003Z,6.17
2018-05-17T03:09:03.440Z,5.63
2018-05-17T03:11:30.890Z,6.93
2018-05-17T03:13:58.339Z,8.80
2018-05-17T03:16:26.563Z,5.87
2018-05-17T03:18:54.340Z,9.07
2018-05-17T03:21:21.799Z,7.90
2018-05-17T03:23:49.364Z,6.77
2018-05-17T03:26:16.827Z,7.20
2018-05-17T03:28:44.364Z,5.77
2018-05-17T03:31:11.933Z,7.47
2018-05-17T03:33:39.383Z,8.60
2018-05-17T03:36:06.943Z,6.87
2018-05-17T03:38:34.494Z,8.67
2018-05-17T03:41:01.951Z,8.70
2018-05-17T03:43:29.407Z,9.67
2018-05-17T03:45:56.971Z,7.80
2018-05-17T03:48:24.419Z,11.20
2018-05-17T03:50:51.987Z,6.77
2018-05-17T03:53:19.547Z,8.87
2018-05-17T03:55:47.376Z,7.23
2018-05-17T03:58:14.827Z,7.57
2018-05-17T04:00:54.211Z,8.50
2018-05-17T04:03:33.647Z,9.23
2018-05-17T04:06:13.179Z,10.03
2018-05-17T04:08:40.675Z,7.13
2018-05-17T04:11:08.257Z,6.63
2018-05-17T04:13:35.815Z,9.53
2018-05-17T04:16:03.374Z,8.57
2018-05-17T04:18:30.932Z,8.10
2018-05-17T04:20:58.638Z,7.77
2018-05-17T04:23:26.183Z,12.67
2018-05-17T04:25:53.645Z,13.67
2018-05-17T04:28:21.986Z,13.70
2018-05-17T04:30:49.427Z,13.97
2018-05-17T04:33:16.931Z,12.90
2018-05-17T04:35:44.460Z,13.87
2018-05-17T04:38:11.910Z,9.30
2018-05-17T04:40:39.399Z,14.40
2018-05-17T04:43:06.958Z,15.20
2018-05-17T04:45:34.423Z,12.33
2018-05-17T04:48:01.980Z,12.50
2018-05-17T04:50:29.807Z,13.80
2018-05-17T04:52:57.250Z,14.67
2018-05-17T04:55:24.716Z,16.53
2018-05-17T04:57:52.211Z,17.07
2018-05-17T05:00:19.672Z,13.93
2018-05-17T05:02:47.240Z,16.00
2018-05-17T05:05:15.055Z,17.90
2018-05-17T05:07:42.540Z,13.13
2018-05-17T05:10:09.995Z,20.53
2018-05-17T05:12:37.447Z,19.60
2018-05-17T05:15:04.912Z,16.50
2018-05-17T05:17:32.368Z,23.90
2018-05-17T05:19:59.815Z,16.37
2018-05-17T05:22:27.279Z,17.70
2018-05-17T05:24:54.839Z,17.33
2018-05-17T05:27:22.291Z,17.67
2018-05-17T05:29:49.743Z,16.93
2018-05-17T05:32:17.199Z,18.17
2018-05-17T05:34:44.651Z,16.40
2018-05-17T05:37:12.219Z,13.37
2018-05-17T05:39:39.676Z,18.70
2018-05-17T05:42:07.236Z,14.03
2018-05-17T05:44:34.799Z,17.80
2018-05-17T05:47:02.255Z,15.30
2018-05-17T05:49:29.756Z,14.60
2018-05-17T05:51:57.175Z,21.37
2018-05-17T05:54:24.716Z,15.57
2018-05-17T05:56:52.180Z,14.27
2018-05-17T05:59:19.633Z,15.30
2018-05-17T06:01:47.190Z,14.40
2018-05-17T06:04:14.704Z,16.10
2018-05-17T06:06:42.094Z,17.40
2018-05-17T06:09:09.551Z,13.30
2018-05-17T06:11:37.012Z,13.63
2018-05-17T06:14:04.563Z,10.60
2018-05-17T06:16:32.018Z,12.70
2018-05-17T06:18:59.480Z,13.47
2018-05-17T06:21:27.044Z,10.00
2018-05-17T06:23:54.532Z,9.63
2018-05-17T06:26:21.943Z,17.33
2018-05-17T06:28:49.407Z,12.90
2018-05-17T06:31:16.967Z,13.03
2018-05-17T06:33:44.523Z,13.60
2018-05-17T06:36:11.978Z,11.27
2018-05-17T06:38:39.843Z,9.53
2018-05-17T06:41:07.295Z,10.47
2018-05-17T06:43:35.032Z,10.60
2018-05-17T06:46:02.796Z,11.43
2018-05-17T06:48:30.281Z,11.47
2018-05-17T06:50:57.809Z,10.60
2018-05-17T06:53:25.255Z,13.87
2018-05-17T06:55:52.746Z,15.17
2018-05-17T06:58:20.306Z,9.90
2018-05-17T07:00:47.763Z,11.57
2018-05-17T07:03:15.219Z,9.87
2018-05-17T07:05:42.687Z,10.57
2018-05-17T07:08:10.239Z,10.73
2018-05-17T07:10:37.688Z,8.33
2018-05-17T07:13:05.138Z,9.97
2018-05-17T07:15:32.587Z,9.00
2018-05-17T07:18:00.205Z,8.30
2018-05-17T07:20:27.508Z,8.87
2018-05-17T07:22:54.956Z,7.80
2018-05-17T07:25:22.404Z,9.47
2018-05-17T07:27:49.886Z,8.33
2018-05-17T07:30:17.332Z,7.27
2018-05-17T07:32:44.787Z,8.97
2018-05-17T07:35:12.235Z,8.67
2018-05-17T07:37:39.705Z,6.87
2018-05-17T07:40:07.142Z,9.13
2018-05-17T07:42:34.620Z,6.67
2018-05-17T07:45:02.068Z,9.20
2018-05-17T07:47:29.541Z,8.17
2018-05-17T07:49:56.984Z,9.97
2018-05-17T07:52:24.435Z,8.47
2018-05-17T07:54:51.904Z,8.23
2018-05-17T07:57:19.365Z,7.67
2018-05-17T07:59:46.885Z,9.37
2018-05-17T08:02:14.330Z,8.10
2018-05-17T08:04:41.767Z,8.73
2018-05-17T08:07:10.008Z,8.93
2018-05-17T08:09:37.452Z,9.33
2018-05-17T08:12:05.464Z,8.00
2018-05-17T08:14:34.107Z,7.63
2018-05-17T08:17:01.563Z,8.33
2018-05-17T08:19:29.011Z,8.70
2018-05-17T08:21:56.468Z,7.47
2018-05-17T08:24:23.916Z,6.07
2018-05-17T08:26:51.386Z,6.83
2018-05-17T08:29:18.843Z,6.90
2018-05-17T08:31:46.299Z,6.87
2018-05-17T08:34:13.760Z,9.00
2018-05-17T08:36:41.402Z,7.13
2018-05-17T08:39:08.866Z,6.20
2018-05-17T08:41:36.315Z,5.53
2018-05-17T08:44:03.787Z,7.40
2018-05-17T08:46:31.246Z,5.60
2018-05-17T08:48:58.700Z,6.70
2018-05-17T08:51:26.151Z,7.37
2018-05-17T08:53:53.714Z,6.97
2018-05-17T08:56:21.164Z,6.80
2018-05-17T08:58:48.727Z,8.13
2018-05-17T09:01:16.180Z,7.00
2018-05-17T09:03:44.015Z,5.10
2018-05-17T09:06:11.797Z,6.07
2018-05-17T09:08:39.263Z,6.30
2018-05-17T09:11:06.711Z,9.03
2018-05-17T09:13:34.206Z,9.90
2018-05-17T09:16:01.628Z,12.13
2018-05-17T09:18:29.087Z,6.87
2018-05-17T09:20:56.530Z,9.83
2018-05-17T09:23:23.987Z,5.33
2018-05-17T09:25:51.460Z,9.97
2018-05-17T09:28:18.919Z,8.20
2018-05-17T09:30:46.474Z,7.53
2018-05-17T09:33:13.934Z,8.40
2018-05-17T09:35:41.381Z,7.70
2018-05-17T09:38:08.827Z,10.20
2018-05-17T09:40:36.299Z,8.77
2018-05-17T09:43:03.750Z,10.50
2018-05-17T09:45:31.315Z,11.13
2018-05-17T09:47:58.767Z,11.93
2018-05-17T09:50:26.323Z,6.17
2018-05-17T09:52:53.775Z,10.87
2018-05-17T09:55:21.427Z,10.53
2018-05-17T09:57:48.878Z,13.13
2018-05-17T10:00:22.286Z,12.63
2018-05-17T10:02:49.745Z,10.40
2018-05-17T10:05:17.208Z,13.00
2018-05-17T10:07:44.760Z,14.93
2018-05-17T10:10:12.319Z,12.53
2018-05-17T10:12:39.779Z,10.47
2018-05-17T10:15:07.407Z,18.57
2018-05-17T10:17:34.912Z,16.50
2018-05-17T10:20:02.727Z,18.37
2018-05-17T10:22:30.493Z,12.90
2018-05-17T10:24:57.950Z,16.33
2018-05-17T10:27:25.436Z,8.83
2018-05-17T10:29:52.995Z,16.20
2018-05-17T10:32:20.442Z,12.50
2018-05-17T10:34:48.003Z,14.27
2018-05-17T10:37:15.463Z,10.97
2018-05-17T10:39:43.027Z,14.23
2018-05-17T10:42:10.668Z,12.40
2018-05-17T10:44:38.036Z,10.97
2018-05-17T10:47:05.595Z,12.07
2018-05-17T10:49:33.152Z,14.60
2018-05-17T10:52:00.706Z,13.23
2018-05-17T10:54:28.224Z,13.73
2018-05-17T10:56:56.443Z,11.47
2018-05-17T10:59:23.900Z,9.07
2018-05-17T11:01:51.349Z,8.93
2018-05-17T11:04:18.811Z,10.53
2018-05-17T11:06:46.371Z,14.20
2018-05-17T11:09:13.932Z,12.37
2018-05-17T11:11:42.915Z,12.47
2018-05-17T11:14:10.647Z,9.30
2018-05-17T11:16:38.100Z,11.13
2018-05-17T11:19:05.588Z,10.07
2018-05-17T11:21:33.119Z,10.33
2018-05-17T11:24:00.680Z,10.03
2018-05-17T11:26:28.120Z,11.00
2018-05-17T11:28:55.575Z,11.60
2018-05-17T11:31:23.079Z,11.10
2018-05-17T11:33:50.631Z,11.87
2018-05-17T11:36:18.191Z,10.90
2018-05-17T11:38:45.755Z,10.93
2018-05-17T11:41:13.203Z,12.77
2018-05-17T11:43:40.774Z,15.00
2018-05-17T11:46:08.215Z,16.20
2018-05-17T11:48:35.672Z,14.57
2018-05-17T11:51:03.119Z,19.43
2018-05-17T11:53:30.575Z,13.33
2018-05-17T11:55:58.032Z,15.43
2018-05-17T11:58:25.487Z,21.73
2018-05-17T12:00:52.935Z,18.33
2018-05-17T12:03:20.484Z,16.53
2018-05-17T12:05:47.935Z,14.67
2018-05-17T12:08:15.374Z,22.43
2018-05-17T12:10:42.885Z,16.50
2018-05-17T12:13:10.351Z,14.47
2018-05-17T12:15:38.110Z,13.33
2018-05-17T12:18:05.734Z,15.13
2018-05-17T12:20:33.184Z,17.50
2018-05-17T12:23:00.685Z,16.60
2018-05-17T12:25:28.137Z,20.40
2018-05-17T12:27:55.587Z,13.77
2018-05-17T12:30:23.113Z,11.77
2018-05-17T12:32:50.551Z,16.63
2018-05-17T12:35:18.011Z,15.63
2018-05-17T12:37:45.463Z,15.80
2018-05-17T12:40:12.919Z,15.10
2018-05-17T12:42:40.388Z,16.20
2018-05-17T12:45:07.848Z,12.50
2018-05-17T12:47:35.300Z,14.83
2018-05-17T12:50:02.803Z,28.63
2018-05-17T12:52:30.360Z,16.47
2018-05-17T12:54:57.816Z,18.67
2018-05-17T12:57:25.376Z,14.60
2018-05-17T12:59:52.840Z,30.87
2018-05-17T13:02:20.287Z,19.40
2018-05-17T13:04:47.838Z,17.37
2018-05-17T13:07:15.283Z,14.93
2018-05-17T13:09:42.851Z,19.87
2018-05-17T13:12:10.403Z,17.63
2018-05-17T13:14:37.964Z,22.10
2018-05-17T13:17:05.523Z,16.03
2018-05-17T13:19:33.082Z,29.80
2018-05-17T13:22:00.816Z,15.90
2018-05-17T13:24:28.601Z,12.13
2018-05-17T13:26:56.050Z,11.30
2018-05-17T13:29:23.799Z,11.10
2018-05-17T13:31:51.291Z,15.07
2018-05-17T13:34:18.735Z,14.87
2018-05-17T13:36:46.196Z,15.53
2018-05-17T13:39:13.660Z,16.10
2018-05-17T13:41:41.119Z,13.47
2018-05-17T13:44:08.880Z,21.53
2018-05-17T13:46:36.702Z,10.47
2018-05-17T13:49:04.250Z,11.23
2018-05-17T13:51:31.751Z,15.10
2018-05-17T13:53:59.277Z,14.07
2018-05-17T13:56:26.736Z,11.20
2018-05-17T13:58:54.214Z,14.00
2018-05-17T14:01:21.787Z,15.60
2018-05-17T14:03:50.747Z,14.83
2018-05-17T14:06:18.195Z,10.40
2018-05-17T14:08:45.648Z,11.23
2018-05-17T14:11:13.207Z,11.30
2018-05-17T14:13:40.778Z,12.13
2018-05-17T14:16:08.147Z,11.33
2018-05-17T14:18:35.600Z,14.07
2018-05-17T14:21:03.163Z,15.17
2018-05-17T14:23:30.629Z,13.50
2018-05-17T14:25:58.179Z,11.87
2018-05-17T14:28:25.631Z,14.90
2018-05-17T14:30:53.087Z,15.63
2018-05-17T14:33:20.539Z,15.50
2018-05-17T14:35:48.078Z,11.70
2018-05-17T14:38:15.516Z,13.80
2018-05-17T14:40:43.003Z,11.47
2018-05-17T14:43:10.456Z,13.77
2018-05-17T14:45:37.931Z,17.97
2018-05-17T14:48:05.483Z,13.03
2018-05-17T14:50:32.943Z,18.97
2018-05-17T14:53:00.496Z,15.37
2018-05-17T14:55:28.780Z,16.30
2018-05-17T14:57:56.331Z,14.23
2018-05-17T15:00:23.894Z,11.53
2018-05-17T15:02:51.500Z,13.70
2018-05-17T15:05:19.046Z,16.60
2018-05-17T15:07:47.266Z,17.83
2018-05-17T15:10:14.778Z,13.50
2018-05-17T15:12:43.196Z,11.97
2018-05-17T15:15:10.898Z,16.53
2018-05-17T15:17:38.688Z,16.23
2018-05-17T15:20:06.920Z,12.63
2018-05-17T15:22:34.371Z,13.87
2018-05-17T15:25:01.814Z,14.57
2018-05-17T15:27:29.363Z,16.23
2018-05-17T15:29:56.768Z,17.73
2018-05-17T15:32:24.179Z,11.77
2018-05-17T15:34:51.646Z,17.07
2018-05-17T15:37:19.100Z,13.83
2018-05-17T15:39:46.547Z,12.77
2018-05-17T15:42:14.015Z,16.53
2018-05-17T15:44:41.573Z,18.10
2018-05-17T15:47:09.303Z,16.60
2018-05-17T15:49:36.800Z,17.10
2018-05-17T15:52:04.251Z,20.20
2018-05-17T15:54:31.787Z,20.03
2018-05-17T15:56:59.268Z,17.83
2018-05-17T15:59:26.716Z,19.63
2018-05-17T16:01:54.277Z,21.40
2018-05-17T16:04:21.735Z,14.97
2018-05-17T16:06:49.199Z,17.63
2018-05-17T16:09:16.714Z,15.97
2018-05-17T16:11:44.168Z,17.80
2018-05-17T16:14:11.607Z,16.13
2018-05-17T16:16:39.067Z,15.93
2018-05-17T16:19:06.749Z,21.50
2018-05-17T16:21:34.234Z,13.97
2018-05-17T16:24:01.792Z,16.87
2018-05-17T16:26:29.249Z,23.23
2018-05-17T16:28:56.872Z,16.63
2018-05-17T16:31:24.335Z,15.97
2018-05-17T16:33:51.819Z,17.90
2018-05-17T16:36:19.272Z,15.23
2018-05-17T16:38:46.725Z,15.87
2018-05-17T16:41:14.179Z,16.50
2018-05-17T16:43:41.639Z,14.20
2018-05-17T16:46:09.087Z,15.77
2018-05-17T16:48:36.637Z,16.00
2018-05-17T16:51:03.996Z,16.23
2018-05-17T16:53:31.459Z,15.60
2018-05-17T16:55:58.911Z,16.00
2018-05-17T16:58:26.479Z,17.07
2018-05-17T17:00:53.924Z,13.53
2018-05-17T17:03:21.375Z,15.40
2018-05-17T17:05:48.834Z,14.00
2018-05-17T17:08:16.295Z,9.87
2018-05-17T17:10:43.760Z,11.83
2018-05-17T17:13:11.219Z,12.93
2018-05-17T17:15:38.728Z,11.17
2018-05-17T17:18:06.226Z,10.40
2018-05-17T17:20:33.683Z,16.13
2018-05-17T17:23:01.138Z,12.57
2018-05-17T17:25:28.710Z,10.57
2018-05-17T17:27:56.163Z,9.50
2018-05-17T17:30:23.711Z,11.40
2018-05-17T17:32:51.275Z,16.67
2018-05-17T17:35:18.833Z,18.63
2018-05-17T17:37:46.287Z,15.73
2018-05-17T17:40:13.748Z,12.07
2018-05-17T17:42:41.203Z,14.80
2018-05-17T17:45:08.660Z,12.83
2018-05-17T17:47:36.385Z,16.30
2018-05-17T17:50:03.933Z,23.77
2018-05-17T17:52:31.426Z,12.23
2018-05-17T17:54:58.885Z,10.70
2018-05-17T17:57:26.440Z,12.83
2018-05-17T17:59:53.888Z,12.17
2018-05-17T18:02:21.347Z,11.00
2018-05-17T18:04:48.802Z,12.43
2018-05-17T18:07:16.370Z,13.63
2018-05-17T18:09:43.923Z,9.33
2018-05-17T18:12:11.488Z,11.57
2018-05-17T18:14:38.944Z,7.83
2018-05-17T18:17:06.387Z,9.70
2018-05-17T18:19:33.847Z,11.87
2018-05-17T18:22:01.304Z,13.03
2018-05-17T18:24:28.867Z,12.40
2018-05-17T18:26:56.310Z,12.33
2018-05-17T18:29:23.777Z,9.33
2018-05-17T18:31:51.231Z,11.67
2018-05-17T18:34:18.796Z,10.33
2018-05-17T18:36:46.255Z,12.57
2018-05-17T18:39:13.708Z,9.00
2018-05-17T18:41:41.273Z,10.87
2018-05-17T18:44:08.727Z,10.20
2018-05-17T18:46:36.505Z,8.97
2018-05-17T18:49:03.994Z,7.03
2018-05-17T18:51:32.210Z,7.80
2018-05-17T18:53:59.663Z,9.27
2018-05-17T18:56:27.224Z,10.03
2018-05-17T18:58:54.683Z,10.03
2018-05-17T19:01:22.244Z,10.83
2018-05-17T19:03:49.695Z,8.60
2018-05-17T19:06:17.255Z,9.17
2018-05-17T19:08:44.845Z,8.97
2018-05-17T19:11:12.254Z,9.80
2018-05-17T19:13:39.723Z,6.90
2018-05-17T19:16:07.171Z,6.93
2018-05-17T19:18:34.631Z,9.37
2018-05-17T19:21:02.095Z,8.07
2018-05-17T19:23:29.547Z,10.63
2018-05-17T19:25:57.100Z,8.13
2018-05-17T19:28:24.664Z,8.60
2018-05-17T19:30:52.114Z,7.27
2018-05-17T19:33:19.675Z,6.13
2018-05-17T19:35:47.132Z,10.20
2018-05-17T19:38:14.588Z,7.03
2018-05-17T19:40:42.040Z,8.10
2018-05-17T19:43:10.010Z,7.77
2018-05-17T19:45:37.458Z,12.27
2018-05-17T19:48:04.909Z,9.50
2018-05-17T19:50:32.380Z,8.83
2018-05-17T19:53:00.028Z,7.97
2018-05-17T19:55:27.490Z,7.20
2018-05-17T19:57:54.942Z,9.67
2018-05-17T20:00:22.390Z,14.27
2018-05-17T20:02:49.840Z,8.80
2018-05-17T20:05:17.595Z,11.80
2018-05-17T20:07:45.079Z,30.63
2018-05-17T20:10:12.541Z,21.50
2018-05-17T20:12:40.000Z,26.07
2018-05-17T20:15:07.468Z,29.67
2018-05-17T20:17:34.898Z,29.57
2018-05-17T20:20:02.463Z,28.47
2018-05-17T20:22:30.028Z,27.80
2018-05-17T20:24:57.489Z,24.40
2018-05-17T20:27:25.051Z,24.93
2018-05-17T20:29:52.591Z,21.67
2018-05-17T20:32:20.042Z,24.67
2018-05-17T20:34:47.508Z,21.37
2018-05-17T20:37:14.955Z,23.57
2018-05-17T20:39:42.526Z,28.23
2018-05-17T20:42:09.975Z,23.33
2018-05-17T20:44:37.444Z,24.67
2018-05-17T20:47:04.890Z,21.70
2018-05-17T20:49:32.496Z,21.77
2018-05-17T20:52:00.016Z,21.03
2018-05-17T20:54:27.572Z,15.23
2018-05-17T20:56:55.117Z,23.20
2018-05-17T20:59:22.584Z,19.37
2018-05-17T21:01:50.135Z,15.50
2018-05-17T21:04:17.600Z,21.50
2018-05-17T21:06:45.149Z,18.23
2018-05-17T21:09:12.883Z,21.10
2018-05-17T21:11:40.336Z,17.60
2018-05-17T21:14:07.802Z,17.10
2018-05-17T21:16:35.260Z,18.23
2018-05-17T21:19:02.731Z,17.13
2018-05-17T21:21:30.186Z,16.83
2018-05-17T21:23:57.747Z,17.70
2018-05-17T21:26:25.206Z,19.77
2018-05-17T21:28:52.771Z,14.97
2018-05-17T21:31:20.327Z,15.43
2018-05-17T21:33:47.782Z,16.90
2018-05-17T21:36:15.346Z,14.97
2018-05-17T21:38:42.899Z,17.07
2018-05-17T21:41:10.459Z,17.10
2018-05-17T21:43:38.020Z,12.40
2018-05-17T21:46:05.475Z,14.60
2018-05-17T21:48:33.032Z,16.10
2018-05-17T21:51:00.759Z,15.00
2018-05-17T21:53:28.212Z,16.03
2018-05-17T21:55:55.706Z,11.93
2018-05-17T21:58:23.156Z,15.47
2018-05-17T22:00:50.719Z,11.43
2018-05-17T22:03:18.172Z,12.00
2018-05-17T22:05:45.627Z,14.60
2018-05-17T22:08:13.095Z,13.53
2018-05-17T22:10:40.648Z,10.83
2018-05-17T22:13:08.107Z,14.27
2018-05-17T22:15:35.551Z,14.00
2018-05-17T22:18:03.016Z,10.77
2018-05-17T22:20:30.475Z,14.47
2018-05-17T22:22:57.919Z,9.57
2018-05-17T22:25:25.755Z,12.13
2018-05-17T22:27:53.208Z,10.50
2018-05-17T22:30:20.700Z,13.77
2018-05-17T22:32:48.261Z,14.00
2018-05-17T22:35:15.820Z,10.97
2018-05-17T22:37:43.273Z,11.57
2018-05-17T22:40:10.739Z,9.47
2018-05-17T22:42:38.288Z,9.87
2018-05-17T22:45:05.744Z,11.77
2018-05-17T22:47:33.472Z,10.47
2018-05-17T22:50:00.930Z,11.23
2018-05-17T22:52:28.415Z,14.13
2018-05-17T22:54:55.943Z,10.50
2018-05-17T22:57:35.316Z,11.40
2018-05-17T23:00:02.869Z,10.17
2018-05-17T23:02:30.427Z,11.90
2018-05-17T23:04:57.989Z,10.73
2018-05-17T23:07:25.434Z,10.13
2018-05-17T23:09:53.071Z,8.93
2018-05-17T23:12:20.443Z,8.03
2018-05-17T23:14:47.891Z,10.63
2018-05-17T23:17:15.351Z,9.53
2018-05-17T23:19:42.807Z,9.47
2018-05-17T23:22:10.267Z,11.00
2018-05-17T23:24:37.737Z,9.80
2018-05-17T23:27:05.193Z,12.50
2018-05-17T23:29:32.644Z,10.73
2018-05-17T23:32:00.098Z,11.37
2018-05-17T23:34:27.560Z,11.07
2018-05-17T23:36:55.115Z,8.93
2018-05-17T23:39:22.554Z,9.60
2018-05-17T23:41:50.015Z,10.80
2018-05-17T23:44:17.458Z,10.37
2018-05-17T23:46:45.233Z,8.37
2018-05-17T23:49:12.704Z,10.97
2018-05-17T23:51:40.259Z,9.47
2018-05-17T23:54:07.710Z,11.83
2018-05-17T23:56:35.285Z,9.47
2018-05-17T23:59:02.732Z,10.60
